Flight Track Log - Related Links

Times and Time Zones

All times are in EDT time to prevent confusion due to time zone crossing. See the AUB1994 flight status page for this flight to view local times or setup timezone preferences in your user account.

Time Position Orientation Groundspeed Altitude Reporting Facility
EDT Latitude Longitude Course Direction KTS MPH feet Rate Location/Type
Thu 01:34:00 PM 48.7625 11.0844 312° West  Level Estimated
Thu 01:35:00 PM 48.8302 10.9663 311° West  Level Estimated
Thu 01:36:00 PM 48.8978 10.8480 311° West  Level Estimated
Thu 01:37:00 PM 48.9652 10.7293 311° West  Level Estimated
Thu 01:38:00 PM 49.0326 10.6103 311° West  Level Estimated
Thu 01:39:00 PM 49.0998 10.4909 311° West  Level Estimated
Thu 01:40:00 PM 49.1669 10.3713 311° West  Level Estimated
Thu 01:41:00 PM 49.2338 10.2513 311° West  Level Estimated
Thu 01:42:00 PM 49.3007 10.1309 310° West  Level Estimated
Thu 01:43:00 PM 49.3674 10.0103 310° West  Level Estimated
Thu 01:44:00 PM 49.4339 9.8893 310° West  Level Estimated
Thu 01:45:00 PM 49.5004 9.7681 310° West  Level Estimated
Thu 01:46:00 PM 49.5667 9.6464 310° West  Level Estimated
Thu 01:47:00 PM 49.6329 9.5245 310° West  Level Estimated
Thu 01:48:00 PM 49.6990 9.4022 310° West  Level Estimated
Thu 01:49:00 PM 49.7650 9.2796 310° West  Level Estimated
Thu 01:50:00 PM 49.8308 9.1566 310° West  Level Estimated
Thu 01:51:00 PM 49.8965 9.0333 310° West  Level Estimated
Thu 01:52:00 PM 49.9621 8.9097 310° West  Level Estimated
Thu 01:53:00 PM 50.0275 8.7858 309° West  Level Estimated
Thu 01:54:00 PM 50.0928 8.6615 309° West  Level Estimated
Thu 01:55:00 PM 50.1579 8.5368 309° West  Level Estimated
Thu 01:56:00 PM 50.2230 8.4118 309° West  Level Estimated
Thu 01:57:00 PM 50.2878 8.2865 309° West  Level Estimated
Thu 01:58:00 PM 50.3526 8.1608 309° West  Level Estimated
Thu 01:59:00 PM 50.4172 8.0349 309° West  Level Estimated
Thu 02:00:00 PM 50.4817 7.9085 309° West  Level Estimated
Thu 02:01:00 PM 50.5461 7.7818 309° West  Level Estimated
Thu 02:02:00 PM 50.6103 7.6548 309° West  Level Estimated
Thu 02:03:00 PM 50.6743 7.5274 308° West  Level Estimated
Thu 02:04:00 PM 50.7383 7.3997 308° West  Level Estimated
Thu 02:05:00 PM 50.8021 7.2716 308° West  Level Estimated
Thu 02:06:00 PM 50.8657 7.1431 308° West  Level Estimated
Thu 02:07:00 PM 50.8659 7.1427 309° West  Level Estimated
Thu 02:08:00 PM 50.8659 7.1427 140° Southeast  Level Estimated
Thu 02:09:00 PM 50.8659 7.1427 140° Southeast  Level Estimated
Thu 02:10:00 PM 50.8659 7.1427 140° Southeast  Level Estimated
Thu 02:11:00 PM 50.8659 7.1427 140° Southeast  Level Estimated
Thu 02:12:00 PM 50.8659 7.1427 140° Southeast  Level Estimated
Thu 02:13:00 PM 50.8659 7.1427 140° Southeast  Level Estimated
Thu 02:14:00 PM 50.8659 7.1427 140° Southeast  Level Estimated
Thu 02:15:00 PM 50.8659 7.1427 140° Southeast  Level Estimated
Thu 02:16:00 PM 50.8659 7.1427 140° Southeast  Level Estimated
Thu 02:17:00 PM 50.8659 7.1427 140° Southeast  Level Estimated
Thu 02:18:00 PM 50.8659 7.1427 140° Southeast  Level Estimated
Thu 02:19:00 PM 50.8659 7.1427 140° Southeast  Level Estimated
Thu 02:20:00 PM 50.8659 7.1427 140° Southeast  Level Estimated
Thu 02:21:00 PM 50.8659 7.1427 140° Southeast  Level Estimated
Thu 02:22:00 PM 50.8659 7.1427 140° Southeast  Level Estimated

Login

Don't have an account? Register now (free) for customized features, flight alerts, and more!